FMNM

Amborovy Airport

Madagascar
METAR FMNM 092100Z 26002KT 9999 FEW020 28/26 Q1012
Observed Flight Rules
Dec-9 @ 21:00 UTC (41 minutes ago) Visual Flight Rules
Wind Visibility Clouds
260° at 2 knots 10,000+ meters
  • Few at 2,000' AGL
Temperatures Readings
Current 28°C / 82°F
Dewpoint 26°C / 79°F
Humidity 89%
Altimeter 29.88" Hg
Pressure 1012 hPa
Elevation 18
METAR FMNM 092100Z 26002KT 9999 FEW020 28/26 Q1012
Observed Flight Rules
Dec-9 @ 21:00 UTC
(41 minutes ago)
VFR
Wind Visibility
260° at 2 knots 10,000+ meters
Clouds
  • Few at 2,000' AGL
Temperature Dewpoint
28°C / 82°F 26°C / 79°F
Humidity Altimeter Pressure
89% 29.88" Hg 1012 hPa